Time;durP1;ratioP1;P1;durP2;ratioP2;P2;SDS_P1;SDS_P2;PMS_P1;PMS_P2;Temp;Humidity;BMP_temperature;BMP_pressure;BME280_temperature;BME280_humidity;BME280_pressure;Samples;Min_cycle;Max_cycle;Signal;HPM_P1;HPM_P2
2022/03/01 00:00:44;;;;;;;8.35;6.13;;;7.40;77.30;;;;;;4809663;29;20134;-81
2022/03/01 00:03:10;;;;;;;7.65;5.70;;;7.40;77.30;;;;;;4809797;29;20479;-80
2022/03/01 00:05:36;;;;;;;8.10;6.05;;;7.30;77.20;;;;;;4810361;29;20034;-80
2022/03/01 00:08:02;;;;;;;7.43;5.68;;;7.30;77.30;;;;;;4809724;29;20045;-81
2022/03/01 00:10:27;;;;;;;8.85;6.72;;;7.30;77.30;;;;;;4809544;29;20098;-80
2022/03/01 00:12:53;;;;;;;9.90;6.47;;;7.30;77.20;;;;;;4824731;29;20183;-80
2022/03/01 00:15:19;;;;;;;7.80;5.68;;;7.30;77.30;;;;;;4824584;29;20098;-80
2022/03/01 00:17:44;;;;;;;8.18;6.10;;;7.20;77.20;;;;;;4825189;29;20035;-81
2022/03/01 00:20:11;;;;;;;7.95;5.97;;;7.20;77.20;;;;;;4809512;29;20049;-79
2022/03/01 00:22:37;;;;;;;8.32;6.32;;;7.20;77.20;;;;;;4809373;29;20045;-79
2022/03/01 00:25:06;;;;;;;8.05;5.63;;;7.20;77.20;;;;;;4809696;29;20160;-80
2022/03/01 00:27:31;;;;;;;8.65;6.18;;;7.10;77.10;;;;;;4810263;29;20042;-80
2022/03/01 00:29:57;;;;;;;9.52;6.93;;;7.10;77.20;;;;;;4824153;29;20038;-80
2022/03/01 00:32:23;;;;;;;7.93;5.53;;;7.10;77.20;;;;;;4796952;29;20042;-80
2022/03/01 00:34:48;;;;;;;9.32;6.43;;;7.10;77.20;;;;;;4827620;29;20076;-79
2022/03/01 00:37:14;;;;;;;9.25;6.82;;;7.00;77.10;;;;;;4812216;29;20042;-79
2022/03/01 00:39:40;;;;;;;7.30;5.35;;;7.00;77.10;;;;;;4797138;29;20041;-80
2022/03/01 00:42:07;;;;;;;7.95;5.45;;;7.00;77.10;;;;;;4797364;29;20038;-79
2022/03/01 00:44:33;;;;;;;8.73;6.10;;;7.00;77.10;;;;;;4812401;29;20133;-79
2022/03/01 00:46:59;;;;;;;7.70;5.38;;;6.90;77.10;;;;;;4811968;29;20117;-79
2022/03/01 00:49:25;;;;;;;8.60;6.38;;;6.90;77.10;;;;;;4827096;29;20048;-79
2022/03/01 00:51:50;;;;;;;8.60;6.28;;;6.90;77.10;;;;;;4812071;29;20037;-80
2022/03/01 00:54:16;;;;;;;8.27;6.07;;;6.90;77.10;;;;;;4827593;29;20501;-80
2022/03/01 00:56:42;;;;;;;8.38;6.05;;;6.90;77.10;;;;;;4797564;29;20060;-79
2022/03/01 00:59:08;;;;;;;8.50;6.30;;;6.90;77.10;;;;;;4827092;29;20039;-80
2022/03/01 01:01:37;;;;;;;8.07;5.50;;;6.90;77.10;;;;;;4827003;29;20030;-81
2022/03/01 01:04:03;;;;;;;9.15;6.47;;;6.80;77.00;;;;;;4826963;29;20177;-79
2022/03/01 01:06:29;;;;;;;8.07;5.70;;;6.80;77.10;;;;;;4812348;29;20038;-81
2022/03/01 01:08:55;;;;;;;8.10;5.78;;;6.80;77.10;;;;;;4826831;29;20084;-80
2022/03/01 01:11:20;;;;;;;7.80;5.82;;;6.80;77.10;;;;;;4811667;29;20038;-79
2022/03/01 01:13:46;;;;;;;8.95;6.32;;;6.70;77.10;;;;;;4826660;29;20032;-80
2022/03/01 01:16:12;;;;;;;8.00;5.50;;;6.70;77.00;;;;;;4811403;29;20075;-79
2022/03/01 01:18:43;;;;;;;8.45;6.03;;;6.70;77.00;;;;;;4811297;29;20038;-79
2022/03/01 01:21:12;;;;;;;8.13;6.03;;;6.70;77.10;;;;;;4811699;29;20128;-80
2022/03/01 01:23:39;;;;;;;8.38;6.20;;;6.70;77.10;;;;;;4826880;29;20086;-79
2022/03/01 01:26:05;;;;;;;8.45;5.85;;;6.70;77.10;;;;;;4811785;29;20042;-79
2022/03/01 01:28:30;;;;;;;8.82;6.45;;;6.60;77.00;;;;;;4811974;29;20041;-80
2022/03/01 01:30:56;;;;;;;8.05;5.63;;;6.60;77.00;;;;;;4811286;29;20054;-79
2022/03/01 01:33:22;;;;;;;9.35;6.03;;;6.60;77.00;;;;;;4826568;29;20129;-80
2022/03/01 01:35:48;;;;;;;8.35;6.15;;;6.60;77.00;;;;;;4827090;29;20033;-82
2022/03/01 01:38:14;;;;;;;7.88;5.93;;;6.50;77.30;;;;;;4843535;29;20041;-79
2022/03/01 01:40:39;;;;;;;8.05;5.70;;;6.50;77.00;;;;;;4811989;29;20391;-80
2022/03/01 01:43:05;;;;;;;8.18;6.00;;;6.50;77.00;;;;;;4827264;29;20034;-80
2022/03/01 01:45:33;;;;;;;7.57;5.82;;;6.50;77.00;;;;;;4811846;29;20148;-81
2022/03/01 01:48:00;;;;;;;8.73;6.20;;;6.50;77.00;;;;;;4811860;29;20204;-80
2022/03/01 01:50:28;;;;;;;9.45;6.95;;;6.50;77.00;;;;;;4826573;29;20048;-79
2022/03/01 01:52:54;;;;;;;9.68;6.03;;;6.50;77.10;;;;;;4811469;29;20041;-80
2022/03/01 01:55:22;;;;;;;8.32;5.82;;;6.40;77.00;;;;;;4827819;29;20026;-79
2022/03/01 01:57:48;;;;;;;9.77;6.13;;;6.40;77.00;;;;;;4810764;29;20030;-79
2022/03/01 02:00:16;;;;;;;7.95;5.78;;;6.40;77.00;;;;;;4826383;29;20063;-78
2022/03/01 02:02:42;;;;;;;7.97;6.07;;;6.40;77.00;;;;;;4826923;29;20412;-79
2022/03/01 02:05:08;;;;;;;8.88;6.22;;;6.40;77.00;;;;;;4811161;29;20038;-79
2022/03/01 02:07:35;;;;;;;8.70;6.10;;;6.30;77.00;;;;;;4811140;29;20163;-79
2022/03/01 02:10:01;;;;;;;8.57;6.47;;;6.40;77.70;;;;;;4811202;29;20129;-79
2022/03/01 02:12:27;;;;;;;8.48;6.03;;;6.30;77.00;;;;;;4810984;29;20105;-79
2022/03/01 02:14:52;;;;;;;8.85;6.63;;;6.30;77.10;;;;;;4811366;29;20519;-80
2022/03/01 02:17:19;;;;;;;8.98;6.18;;;6.30;77.00;;;;;;4826384;29;20372;-80
2022/03/01 02:19:49;;;;;;;8.25;6.00;;;6.30;77.10;;;;;;4811402;29;20046;-79
2022/03/01 02:22:15;;;;;;;8.57;6.03;;;6.30;77.10;;;;;;4826972;29;20034;-79
2022/03/01 02:24:41;;;;;;;9.02;5.90;;;6.30;77.00;;;;;;4810886;29;20064;-79
2022/03/01 02:27:07;;;;;;;8.32;5.75;;;6.30;77.10;;;;;;4810889;29;20486;-79
2022/03/01 02:29:33;;;;;;;7.75;5.93;;;6.30;77.10;;;;;;4810676;29;20125;-79
2022/03/01 02:32:06;;;;;;;8.35;6.13;;;6.30;77.10;;;;;;4826197;29;20058;-79
2022/03/01 02:34:33;;;;;;;8.48;5.78;;;6.20;77.10;;;;;;4811251;29;20038;-79
2022/03/01 02:36:58;;;;;;;7.97;6.05;;;6.20;77.10;;;;;;4811077;29;20114;-80
2022/03/01 02:39:24;;;;;;;8.95;6.90;;;6.20;77.10;;;;;;4826460;29;20038;-79
2022/03/01 02:41:50;;;;;;;8.93;6.35;;;6.20;77.10;;;;;;4796421;29;20445;-80
2022/03/01 02:44:16;;;;;;;8.75;6.15;;;6.20;77.10;;;;;;4811622;29;20472;-79
2022/03/01 02:46:42;;;;;;;7.68;5.82;;;6.20;77.10;;;;;;4811143;29;20038;-79
2022/03/01 02:49:09;;;;;;;8.00;6.00;;;6.10;77.00;;;;;;4826267;29;20487;-79
2022/03/01 02:51:35;;;;;;;7.35;5.40;;;6.10;77.10;;;;;;4842220;29;20103;-79
2022/03/01 02:54:03;;;;;;;7.80;5.40;;;6.10;77.10;;;;;;4827757;29;20112;-80
2022/03/01 02:56:28;;;;;;;9.13;6.10;;;6.10;77.10;;;;;;4815117;29;20094;-79
2022/03/01 02:58:58;;;;;;;8.75;6.45;;;6.10;77.10;;;;;;4829415;29;20041;-79
2022/03/01 03:01:25;;;;;;;8.55;6.45;;;6.10;77.10;;;;;;4829720;29;20113;-80
2022/03/01 03:03:51;;;;;;;7.07;5.32;;;6.10;77.10;;;;;;4814412;29;20090;-79
2022/03/01 03:06:17;;;;;;;7.68;5.45;;;6.00;77.00;;;;;;4814168;29;20038;-80
2022/03/01 03:08:43;;;;;;;8.85;6.25;;;6.00;77.00;;;;;;4813456;29;20026;-78
2022/03/01 03:11:09;;;;;;;9.18;6.50;;;6.00;77.00;;;;;;4814726;29;20042;-80
2022/03/01 03:13:36;;;;;;;8.55;6.15;;;6.00;77.00;;;;;;4813902;29;20030;-79
2022/03/01 03:16:03;;;;;;;8.65;6.35;;;6.00;77.10;;;;;;4798647;29;20365;-80
2022/03/01 03:18:30;;;;;;;8.48;5.97;;;6.00;77.10;;;;;;4828639;29;20053;-79
2022/03/01 03:20:55;;;;;;;8.70;6.30;;;6.00;77.10;;;;;;4813507;29;20046;-80
2022/03/01 03:23:21;;;;;;;9.73;6.43;;;5.90;77.00;;;;;;4828819;29;20033;-80
2022/03/01 03:25:47;;;;;;;9.30;5.95;;;5.90;77.00;;;;;;4828559;29;20042;-79
2022/03/01 03:28:13;;;;;;;9.38;6.60;;;5.90;77.00;;;;;;4813925;29;20045;-80
2022/03/01 03:30:39;;;;;;;8.82;6.05;;;5.90;77.00;;;;;;4810750;29;20087;-80
2022/03/01 03:33:04;;;;;;;8.27;6.32;;;5.90;77.10;;;;;;4810885;29;20484;-80
2022/03/01 03:35:30;;;;;;;9.30;6.10;;;5.90;77.70;;;;;;4797196;29;20035;-81
2022/03/01 03:37:56;;;;;;;8.75;6.13;;;5.80;77.00;;;;;;4782280;29;20023;-79
2022/03/01 03:40:22;;;;;;;8.15;5.88;;;5.90;77.00;;;;;;4811929;29;20045;-78
2022/03/01 03:42:48;;;;;;;8.60;6.20;;;5.80;77.00;;;;;;4826588;29;20034;-79
2022/03/01 03:45:14;;;;;;;8.32;5.93;;;5.80;77.00;;;;;;4813586;29;20043;-80
2022/03/01 03:47:41;;;;;;;9.25;6.20;;;5.80;77.00;;;;;;4829589;29;20514;-81
2022/03/01 03:50:10;;;;;;;9.02;6.55;;;5.80;77.10;;;;;;4838469;29;20043;-82
2022/03/01 03:52:38;;;;;;;9.15;6.13;;;5.80;77.10;;;;;;4832837;29;20042;-80
2022/03/01 03:55:05;;;;;;;7.95;5.53;;;5.80;77.10;;;;;;4811875;29;20034;-81
2022/03/01 03:57:32;;;;;;;8.93;6.30;;;5.80;77.20;;;;;;4827626;29;20026;-80
2022/03/01 03:59:58;;;;;;;8.35;6.32;;;5.70;77.10;;;;;;4831563;29;20090;-80
2022/03/01 04:02:24;;;;;;;9.73;6.30;;;5.70;77.10;;;;;;4830144;29;20030;-79
2022/03/01 04:04:50;;;;;;;8.23;5.97;;;5.70;77.10;;;;;;4811473;29;20039;-80
2022/03/01 04:07:16;;;;;;;9.85;6.32;;;5.70;77.10;;;;;;4811901;29;20097;-80
2022/03/01 04:09:41;;;;;;;8.70;6.13;;;5.70;77.10;;;;;;4811194;29;20040;-84
2022/03/01 04:12:07;;;;;;;8.68;6.07;;;5.70;77.10;;;;;;4811029;29;20125;-81
2022/03/01 04:14:33;;;;;;;8.82;6.30;;;5.70;77.10;;;;;;4825781;29;20034;-81
2022/03/01 04:16:59;;;;;;;8.98;6.10;;;5.70;77.10;;;;;;4825909;29;20125;-80
2022/03/01 04:19:25;;;;;;;8.75;6.15;;;5.70;77.10;;;;;;4796495;29;20065;-80
2022/03/01 04:21:50;;;;;;;8.93;6.13;;;5.70;77.10;;;;;;4796602;29;20041;-80
2022/03/01 04:24:16;;;;;;;9.40;6.30;;;5.70;77.20;;;;;;4811655;29;20034;-79
2022/03/01 04:26:42;;;;;;;8.93;5.93;;;5.70;77.20;;;;;;4828143;29;20034;-83
2022/03/01 04:29:08;;;;;;;8.25;5.88;;;5.60;77.20;;;;;;4825790;29;20030;-79
2022/03/01 04:31:34;;;;;;;7.95;5.72;;;5.60;77.20;;;;;;4809877;29;20374;-79
2022/03/01 04:33:59;;;;;;;8.75;6.40;;;5.60;77.20;;;;;;4795703;29;20373;-80
2022/03/01 04:36:25;;;;;;;10.23;6.45;;;5.60;77.20;;;;;;4809769;29;20037;-79
2022/03/01 04:38:51;;;;;;;7.35;5.63;;;5.60;77.20;;;;;;4810289;29;20041;-80
2022/03/01 04:41:17;;;;;;;9.10;6.18;;;5.60;77.20;;;;;;4825329;29;20058;-79
2022/03/01 04:43:42;;;;;;;9.25;6.63;;;5.60;77.20;;;;;;4826577;29;20034;-79
2022/03/01 04:46:09;;;;;;;8.70;6.75;;;5.60;77.20;;;;;;4824648;29;20038;-80
2022/03/01 04:48:34;;;;;;;8.27;5.68;;;5.60;77.20;;;;;;4794283;29;20392;-79
2022/03/01 04:51:00;;;;;;;8.43;6.28;;;5.60;77.20;;;;;;4794714;29;20050;-79
2022/03/01 04:53:26;;;;;;;8.57;6.20;;;5.60;77.20;;;;;;4809029;29;20395;-79
2022/03/01 04:55:52;;;;;;;8.60;6.40;;;5.60;77.20;;;;;;4825392;29;20027;-79
2022/03/01 04:58:18;;;;;;;8.85;6.05;;;5.60;77.30;;;;;;4809495;29;20472;-78
2022/03/01 05:00:44;;;;;;;8.73;6.03;;;5.50;77.20;;;;;;4824114;29;20066;-85
2022/03/01 05:03:09;;;;;;;7.93;5.35;;;5.50;77.20;;;;;;4824046;29;20061;-78
2022/03/01 05:05:35;;;;;;;8.48;6.45;;;5.50;77.20;;;;;;4825034;29;20456;-79
2022/03/01 05:08:01;;;;;;;9.02;6.20;;;5.50;77.20;;;;;;4825448;29;20030;-78
2022/03/01 05:10:27;;;;;;;8.20;5.93;;;5.50;77.30;;;;;;4793540;29;20050;-78
2022/03/01 05:12:55;;;;;;;8.07;5.75;;;5.50;77.20;;;;;;4808715;29;20034;-77
2022/03/01 05:15:23;;;;;;;9.20;6.57;;;5.50;77.30;;;;;;4824958;29;20118;-78
2022/03/01 05:17:49;;;;;;;7.97;6.13;;;5.50;77.30;;;;;;4823267;29;20408;-78
2022/03/01 05:20:17;;;;;;;8.57;6.10;;;5.50;77.30;;;;;;4808385;29;20544;-78
2022/03/01 05:22:43;;;;;;;7.78;6.00;;;5.50;77.30;;;;;;4808604;29;20476;-79
2022/03/01 05:25:12;;;;;;;8.80;5.82;;;5.50;77.30;;;;;;4823945;29;20038;-78
2022/03/01 05:27:39;;;;;;;9.90;6.97;;;5.50;77.30;;;;;;4823710;29;20122;-78
2022/03/01 05:30:07;;;;;;;8.23;6.20;;;5.40;77.30;;;;;;4809544;29;20470;-78
2022/03/01 05:32:37;;;;;;;9.50;6.93;;;5.50;77.30;;;;;;4811605;29;20049;-77
2022/03/01 05:35:04;;;;;;;8.95;5.97;;;5.40;77.30;;;;;;4842503;29;20133;-82
2022/03/01 05:37:30;;;;;;;8.48;6.18;;;5.40;77.30;;;;;;4842574;29;20108;-77
2022/03/01 05:39:55;;;;;;;8.27;6.20;;;5.40;77.30;;;;;;4811519;29;20042;-77
2022/03/01 05:42:21;;;;;;;8.43;6.45;;;5.40;77.30;;;;;;4811345;29;20022;-78
2022/03/01 05:44:47;;;;;;;9.73;6.90;;;5.40;77.30;;;;;;4826805;29;20134;-80
2022/03/01 05:47:13;;;;;;;8.52;5.90;;;5.40;77.30;;;;;;4811504;29;20449;-78
2022/03/01 05:49:39;;;;;;;8.55;6.38;;;5.40;77.30;;;;;;4796832;29;20046;-78
2022/03/01 05:52:05;;;;;;;7.68;5.60;;;5.40;77.30;;;;;;4811737;29;20044;-82
2022/03/01 05:54:31;;;;;;;8.02;6.07;;;5.40;77.30;;;;;;4826795;29;20042;-78
2022/03/01 05:56:56;;;;;;;8.70;6.38;;;5.40;77.30;;;;;;4811289;29;20118;-80
2022/03/01 05:59:22;;;;;;;8.38;6.20;;;5.30;77.30;;;;;;4827336;29;20069;-79
2022/03/01 06:01:48;;;;;;;8.40;6.03;;;5.40;77.40;;;;;;4826379;29;20030;-79
2022/03/01 06:04:14;;;;;;;9.65;6.97;;;5.40;77.40;;;;;;4826620;29;20090;-82
2022/03/01 06:06:40;;;;;;;8.73;6.03;;;5.40;77.40;;;;;;4811377;29;20042;-78
2022/03/01 06:09:05;;;;;;;8.98;6.60;;;5.40;77.40;;;;;;4826057;29;20525;-77
2022/03/01 06:11:32;;;;;;;9.27;6.68;;;5.40;77.40;;;;;;4781226;29;20121;-78
2022/03/01 06:13:58;;;;;;;8.52;6.00;;;5.40;77.50;;;;;;4811079;29;20042;-80
2022/03/01 06:16:23;;;;;;;8.15;6.07;;;5.40;77.40;;;;;;4826461;29;20041;-78
2022/03/01 06:18:49;;;;;;;9.52;6.38;;;5.30;77.30;;;;;;4826139;29;20049;-81
2022/03/01 06:21:15;;;;;;;9.02;6.85;;;5.40;77.40;;;;;;4810873;29;20125;-78
2022/03/01 06:23:41;;;;;;;9.38;6.63;;;5.30;77.40;;;;;;4796489;29;20465;-78
2022/03/01 06:26:07;;;;;;;9.45;5.95;;;5.30;77.30;;;;;;4811064;29;20034;-78
2022/03/01 06:28:33;;;;;;;8.60;6.00;;;5.30;77.30;;;;;;4812881;29;20038;-78
2022/03/01 06:30:58;;;;;;;9.13;6.53;;;5.30;77.40;;;;;;4814755;29;20552;-77
2022/03/01 06:33:25;;;;;;;9.20;6.65;;;5.30;77.40;;;;;;4829757;29;20036;-78
2022/03/01 06:35:51;;;;;;;9.15;6.55;;;5.30;77.40;;;;;;4845814;29;20045;-79
2022/03/01 06:38:17;;;;;;;8.68;6.53;;;5.30;77.40;;;;;;4829817;29;20125;-77
2022/03/01 06:40:43;;;;;;;9.52;7.07;;;5.30;77.40;;;;;;4799383;29;20129;-78
2022/03/01 06:43:09;;;;;;;7.97;5.88;;;5.30;77.40;;;;;;4814318;29;20479;-78
2022/03/01 06:45:35;;;;;;;8.88;6.43;;;5.30;77.40;;;;;;4814156;29;20103;-79
2022/03/01 06:48:01;;;;;;;8.88;6.70;;;5.30;77.40;;;;;;4829198;29;20069;-80
2022/03/01 06:50:26;;;;;;;8.38;6.38;;;5.30;77.40;;;;;;4814179;29;20062;-78
2022/03/01 06:52:53;;;;;;;7.97;6.00;;;5.30;77.50;;;;;;4799032;29;20046;-80
2022/03/01 06:55:21;;;;;;;8.40;6.30;;;5.30;77.50;;;;;;4814393;29;20030;-78
2022/03/01 06:57:48;;;;;;;9.55;7.32;;;5.30;77.50;;;;;;4814228;29;20470;-79
2022/03/01 07:00:14;;;;;;;8.43;6.13;;;5.30;77.50;;;;;;4814141;29;20049;-78
2022/03/01 07:02:41;;;;;;;9.30;6.97;;;5.30;77.50;;;;;;4828896;29;20038;-78
2022/03/01 07:05:12;;;;;;;9.55;6.57;;;5.30;77.50;;;;;;4845651;29;20022;-78
2022/03/01 07:07:39;;;;;;;10.15;6.75;;;5.30;77.50;;;;;;4829082;29;20034;-78
2022/03/01 07:10:07;;;;;;;8.90;6.35;;;5.30;77.50;;;;;;4828734;29;20037;-79
2022/03/01 07:12:33;;;;;;;8.73;6.38;;;5.30;77.50;;;;;;4813562;29;20042;-79
2022/03/01 07:14:59;;;;;;;9.85;7.00;;;5.30;77.50;;;;;;4828728;29;20030;-78
2022/03/01 07:17:25;;;;;;;9.27;6.68;;;5.30;77.60;;;;;;4798797;29;20034;-78
2022/03/01 07:19:51;;;;;;;9.85;6.57;;;5.30;77.50;;;;;;4813831;29;20034;-79
2022/03/01 07:22:17;;;;;;;8.65;6.72;;;5.30;77.60;;;;;;4828567;29;20034;-78
2022/03/01 07:24:43;;;;;;;8.95;6.47;;;5.30;77.60;;;;;;4828797;29;20026;-79
2022/03/01 07:27:09;;;;;;;8.88;6.40;;;5.30;77.60;;;;;;4828389;29;20046;-77
2022/03/01 07:29:36;;;;;;;9.45;6.32;;;5.30;77.60;;;;;;4813285;29;20034;-78
2022/03/01 07:32:04;;;;;;;8.65;6.40;;;5.30;77.60;;;;;;4809671;29;20076;-79
2022/03/01 07:34:31;;;;;;;8.73;6.70;;;5.30;77.60;;;;;;4810427;29;20065;-79
2022/03/01 07:36:57;;;;;;;8.10;5.85;;;5.30;77.60;;;;;;4825280;29;20105;-78
2022/03/01 07:39:22;;;;;;;8.85;6.63;;;5.30;77.60;;;;;;4825289;29;20058;-78
2022/03/01 07:41:49;;;;;;;9.15;6.88;;;5.30;77.60;;;;;;4810419;29;20073;-79
2022/03/01 07:44:16;;;;;;;8.77;6.57;;;5.30;77.60;;;;;;4825261;29;20117;-78
2022/03/01 07:46:42;;;;;;;9.02;6.68;;;5.30;77.60;;;;;;4810244;29;20086;-78
2022/03/01 07:49:08;;;;;;;9.77;6.65;;;5.30;77.60;;;;;;4810000;29;20038;-78
2022/03/01 07:51:34;;;;;;;8.73;6.13;;;5.30;77.70;;;;;;4825745;29;20179;-78
2022/03/01 07:54:00;;;;;;;9.05;6.75;;;5.40;77.70;;;;;;4795012;29;20494;-79
2022/03/01 07:56:25;;;;;;;8.80;6.45;;;5.40;77.70;;;;;;4809943;29;20076;-78
2022/03/01 07:58:52;;;;;;;9.40;6.95;;;5.40;77.80;;;;;;4810130;29;20030;-78
2022/03/01 08:01:18;;;;;;;8.77;6.78;;;5.40;77.80;;;;;;4824842;29;20037;-78
2022/03/01 08:03:44;;;;;;;9.10;6.30;;;5.40;77.80;;;;;;4810217;29;20035;-79
2022/03/01 08:06:10;;;;;;;8.80;6.43;;;5.40;77.80;;;;;;4809948;29;20083;-78
2022/03/01 08:08:36;;;;;;;8.40;6.72;;;5.40;77.80;;;;;;4826222;29;20528;-79
2022/03/01 08:11:04;;;;;;;9.27;6.65;;;5.40;77.80;;;;;;4794569;29;20049;-79
2022/03/01 08:13:31;;;;;;;9.32;7.00;;;5.40;77.80;;;;;;4809684;29;20080;-78
2022/03/01 08:15:57;;;;;;;8.50;6.40;;;5.50;77.90;;;;;;4824608;29;20472;-79
2022/03/01 08:18:23;;;;;;;7.88;6.30;;;5.50;77.80;;;;;;4824432;29;20038;-78
2022/03/01 08:20:49;;;;;;;8.60;6.68;;;5.50;77.90;;;;;;4809898;29;20046;-78
2022/03/01 08:23:15;;;;;;;9.50;6.85;;;5.50;77.90;;;;;;4809884;29;20117;-79
2022/03/01 08:25:41;;;;;;;9.68;6.72;;;5.50;77.90;;;;;;4809393;29;20062;-79
2022/03/01 08:28:07;;;;;;;8.88;6.57;;;5.50;77.90;;;;;;4809315;29;20022;-79
2022/03/01 08:30:35;;;;;;;9.00;6.80;;;5.50;77.90;;;;;;4825662;29;20387;-79
2022/03/01 08:33:02;;;;;;;9.05;6.90;;;5.50;77.90;;;;;;4812270;29;20054;-78
2022/03/01 08:35:29;;;;;;;7.90;6.15;;;5.60;77.90;;;;;;4827442;29;20424;-78
2022/03/01 08:37:56;;;;;;;8.68;6.55;;;5.60;78.00;;;;;;4812430;29;20536;-79
2022/03/01 08:40:23;;;;;;;8.02;6.30;;;5.60;77.90;;;;;;4798090;29;20042;-78
2022/03/01 08:42:49;;;;;;;9.00;6.38;;;5.60;78.00;;;;;;4827500;29;20037;-79
2022/03/01 08:45:15;;;;;;;9.70;7.20;;;5.60;78.00;;;;;;4827193;29;20034;-79
2022/03/01 08:47:41;;;;;;;9.05;6.45;;;5.60;78.00;;;;;;4812083;29;20052;-78
2022/03/01 08:50:08;;;;;;;9.15;6.88;;;5.70;78.00;;;;;;4826707;29;20030;-79
2022/03/01 08:52:34;;;;;;;9.05;6.93;;;5.70;78.00;;;;;;4826525;29;20030;-79
2022/03/01 08:55:00;;;;;;;8.77;6.82;;;5.70;78.00;;;;;;4812528;29;20448;-81
2022/03/01 08:57:26;;;;;;;8.07;6.50;;;5.70;78.00;;;;;;4811813;29;20384;-78
2022/03/01 08:59:52;;;;;;;9.73;7.13;;;5.70;78.00;;;;;;4812402;29;20144;-78
2022/03/01 09:02:19;;;;;;;7.47;6.25;;;5.80;78.00;;;;;;4796828;29;20116;-78
2022/03/01 09:04:45;;;;;;;9.32;6.75;;;5.80;78.00;;;;;;4797363;29;20038;-78
2022/03/01 09:07:11;;;;;;;8.63;6.68;;;5.80;78.00;;;;;;4826948;29;20029;-77
2022/03/01 09:09:37;;;;;;;8.88;6.75;;;5.80;78.00;;;;;;4811165;29;20070;-79
2022/03/01 09:12:03;;;;;;;8.25;6.35;;;5.90;78.00;;;;;;4811445;29;20034;-78
2022/03/01 09:14:28;;;;;;;9.20;6.72;;;5.90;78.00;;;;;;4826570;29;20044;-78
2022/03/01 09:16:54;;;;;;;9.30;7.25;;;5.90;78.00;;;;;;4811357;29;20042;-78
2022/03/01 09:19:20;;;;;;;8.88;6.45;;;6.00;78.00;;;;;;4842838;29;20037;-78
2022/03/01 09:21:46;;;;;;;8.32;6.68;;;6.00;78.00;;;;;;4826584;29;20026;-79
2022/03/01 09:24:12;;;;;;;9.50;6.78;;;6.00;78.00;;;;;;4811992;29;20030;-77
2022/03/01 09:26:38;;;;;;;9.38;6.90;;;6.10;78.10;;;;;;4811406;29;20460;-80
2022/03/01 09:29:04;;;;;;;8.57;6.25;;;6.00;77.90;;;;;;4811382;29;20062;-78
2022/03/01 09:31:30;;;;;;;10.18;6.82;;;6.10;78.00;;;;;;4843300;29;20062;-78
2022/03/01 09:33:56;;;;;;;9.48;6.68;;;6.10;78.00;;;;;;4826137;29;20376;-78
2022/03/01 09:36:22;;;;;;;8.65;6.60;;;6.20;78.00;;;;;;4811463;29;20034;-80
2022/03/01 09:38:48;;;;;;;8.52;6.22;;;6.20;78.00;;;;;;4826808;29;20037;-79
2022/03/01 09:41:15;;;;;;;8.70;6.60;;;6.20;78.00;;;;;;4812035;29;20447;-79
2022/03/01 09:43:41;;;;;;;9.90;7.00;;;6.30;78.00;;;;;;4827889;29;20034;-80
2022/03/01 09:46:09;;;;;;;9.18;6.60;;;6.30;78.00;;;;;;4811477;29;20029;-80
2022/03/01 09:48:35;;;;;;;8.13;6.40;;;6.30;77.90;;;;;;4826365;29;20034;-80
2022/03/01 09:51:02;;;;;;;8.98;6.65;;;6.30;77.90;;;;;;4826164;29;20479;-80
2022/03/01 09:53:28;;;;;;;8.73;6.40;;;6.40;78.00;;;;;;4797283;29;20479;-82
2022/03/01 09:55:55;;;;;;;9.32;7.15;;;6.40;77.90;;;;;;4827112;29;20034;-80
2022/03/01 09:58:22;;;;;;;8.68;7.20;;;6.40;77.90;;;;;;4826308;29;20065;-80
2022/03/01 10:00:48;;;;;;;8.68;6.72;;;6.50;77.90;;;;;;4826461;29;20029;-81
2022/03/01 10:03:16;;;;;;;9.55;7.15;;;6.50;77.90;;;;;;4826939;29;20046;-80
2022/03/01 10:05:43;;;;;;;9.35;7.00;;;6.50;77.80;;;;;;4815127;29;20022;-80
2022/03/01 10:08:18;;;;;;;8.15;6.10;;;6.60;77.80;;;;;;4815130;29;20547;-81
2022/03/01 10:10:47;;;;;;;8.52;6.55;;;6.60;77.90;;;;;;4815028;29;20475;-80
2022/03/01 10:13:27;;;;;;;9.07;6.85;;;6.70;77.80;;;;;;4814691;29;20108;-80
2022/03/01 10:16:14;;;;;;;9.77;6.88;;;6.70;77.80;;;;;;4832339;29;20045;-79
2022/03/01 10:18:43;;;;;;;9.25;7.07;;;6.70;77.90;;;;;;4814943;29;20519;-80
2022/03/01 10:21:13;;;;;;;8.25;6.60;;;6.80;77.80;;;;;;4814758;29;20066;-81
2022/03/01 10:23:45;;;;;;;7.75;6.07;;;6.90;77.80;;;;;;4814992;29;20038;-81
2022/03/01 10:26:12;;;;;;;8.20;6.47;;;6.90;77.90;;;;;;4814712;29;20037;-80
2022/03/01 10:28:38;;;;;;;9.40;7.10;;;7.00;77.90;;;;;;4814457;29;20026;-80
2022/03/01 10:31:16;;;;;;;8.82;6.72;;;7.00;77.80;;;;;;4814746;29;20038;-81
2022/03/01 10:33:57;;;;;;;8.68;6.68;;;7.00;77.80;;;;;;4814719;29;20463;-80
2022/03/01 10:36:28;;;;;;;9.40;7.10;;;7.10;77.90;;;;;;4830070;29;20465;-81
2022/03/01 10:39:06;;;;;;;8.25;6.13;;;7.10;77.80;;;;;;4829724;29;20034;-81
2022/03/01 10:41:36;;;;;;;10.05;6.90;;;7.20;77.80;;;;;;4829750;29;20506;-81
2022/03/01 10:44:03;;;;;;;8.30;6.25;;;7.30;77.80;;;;;;4814621;29;20034;-82
2022/03/01 10:46:36;;;;;;;9.02;6.72;;;7.30;77.80;;;;;;4815070;29;20038;-81
2022/03/01 10:49:26;;;;;;;8.15;6.85;;;7.40;77.80;;;;;;4846409;29;20072;-81
2022/03/01 10:52:05;;;;;;;8.75;6.47;;;7.50;77.90;;;;;;4805363;29;20072;-81
2022/03/01 10:54:38;;;;;;;8.75;6.57;;;7.50;77.70;;;;;;4829478;29;20049;-81
2022/03/01 10:57:06;;;;;;;9.18;6.85;;;7.60;77.70;;;;;;4829591;29;20040;-82
2022/03/01 10:59:34;;;;;;;8.50;6.47;;;7.70;77.70;;;;;;4813639;29;20034;-80
2022/03/01 11:02:01;;;;;;;8.80;6.63;;;7.70;77.70;;;;;;4829284;29;20038;-81
2022/03/01 11:04:27;;;;;;;8.35;6.55;;;7.80;77.70;;;;;;4799683;29;20058;-81
2022/03/01 11:07:01;;;;;;;9.77;6.85;;;7.80;77.70;;;;;;4814228;29;20038;-81
2022/03/01 11:09:29;;;;;;;8.75;6.80;;;7.90;77.70;;;;;;4813961;29;20049;-81
2022/03/01 11:11:57;;;;;;;8.50;6.72;;;7.90;77.70;;;;;;4814266;29;20551;-81
2022/03/01 11:14:50;;;;;;;8.93;6.85;;;8.00;77.70;;;;;;4828841;29;20034;-82
2022/03/01 11:17:50;;;;;;;8.57;6.45;;;8.10;77.80;;;;;;4829348;29;20026;-82
2022/03/01 11:20:23;;;;;;;9.68;6.93;;;8.10;77.80;;;;;;4829642;29;20100;-82
2022/03/01 11:22:57;;;;;;;7.97;6.30;;;8.20;77.70;;;;;;4814182;29;20034;-80
2022/03/01 11:25:25;;;;;;;8.75;6.53;;;8.30;77.70;;;;;;4829650;29;20049;-82
2022/03/01 11:28:09;;;;;;;8.95;6.97;;;8.30;77.70;;;;;;4814358;29;20034;-81
2022/03/01 11:30:38;;;;;;;9.02;6.72;;;8.40;77.80;;;;;;4814039;29;20041;-82
2022/03/01 11:33:04;;;;;;;9.35;6.97;;;8.40;77.70;;;;;;4828676;29;20480;-81
2022/03/01 11:35:43;;;;;;;9.68;7.30;;;8.50;77.70;;;;;;4829489;29;20124;-82
2022/03/01 11:38:12;;;;;;;8.65;6.82;;;8.50;77.70;;;;;;4829015;29;20479;-81
2022/03/01 11:40:42;;;;;;;10.88;7.63;;;8.60;77.70;;;;;;4813630;29;20030;-82
2022/03/01 11:43:22;;;;;;;9.70;7.05;;;8.70;77.70;;;;;;4829107;29;20384;-81
2022/03/01 11:45:51;;;;;;;9.77;7.25;;;8.70;77.80;;;;;;4828729;29;20030;-83
2022/03/01 11:48:19;;;;;;;9.60;7.07;;;8.80;77.70;;;;;;4813410;29;20025;-81
2022/03/01 11:50:56;;;;;;;9.18;7.45;;;8.80;77.70;;;;;;4828529;29;20038;-82
2022/03/01 11:53:30;;;;;;;8.70;6.80;;;8.90;77.80;;;;;;4828625;29;20444;-81
2022/03/01 11:55:58;;;;;;;9.40;7.50;;;8.90;77.70;;;;;;4813374;29;20041;-80
2022/03/01 11:58:26;;;;;;;9.70;7.07;;;9.00;77.70;;;;;;4813165;29;20037;-80
2022/03/01 12:00:53;;;;;;;9.98;7.38;;;9.10;77.80;;;;;;4828470;29;20045;-81
2022/03/01 12:03:21;;;;;;;9.68;7.45;;;9.10;77.70;;;;;;4813823;29;20419;-81
2022/03/01 12:05:48;;;;;;;9.57;7.13;;;9.20;77.70;;;;;;4813052;29;20037;-81
2022/03/01 12:08:16;;;;;;;8.68;7.28;;;9.20;77.70;;;;;;4813259;29;20466;-80
2022/03/01 12:10:51;;;;;;;8.98;6.85;;;9.30;77.80;;;;;;4813081;29;20491;-81
2022/03/01 12:13:16;;;;;;;;;;;9.30;77.80;;;;;;4828734;29;20034;-81
2022/03/01 12:15:53;;;;;;;8.85;6.65;;;9.40;77.70;;;;;;4828257;29;19919;-81
2022/03/01 12:18:32;;;;;;;9.68;7.38;;;9.40;77.60;;;;;;4828316;29;20118;-80
2022/03/01 12:21:06;;;;;;;8.80;6.82;;;9.40;77.70;;;;;;4828519;29;20049;-81
2022/03/01 12:23:34;;;;;;;8.50;6.97;;;9.50;77.80;;;;;;4813023;29;20432;-80
2022/03/01 12:26:02;;;;;;;8.95;7.15;;;9.50;77.70;;;;;;4812484;29;20034;-79
2022/03/01 12:28:35;;;;;;;9.13;7.10;;;9.60;77.70;;;;;;4812996;29;20116;-81
2022/03/01 12:31:20;;;;;;;9.05;7.05;;;9.60;77.80;;;;;;4843965;29;20048;-79
2022/03/01 12:34:07;;;;;;;9.10;7.22;;;9.70;77.80;;;;;;4828042;29;20081;-80
2022/03/01 12:36:40;;;;;;;9.15;7.13;;;9.70;77.80;;;;;;4828154;29;20034;-80
2022/03/01 12:39:12;;;;;;;9.02;7.07;;;9.80;77.70;;;;;;4812855;29;20033;-81
2022/03/01 12:41:39;;;;;;;8.95;7.18;;;9.90;77.80;;;;;;4844363;29;20033;-83
2022/03/01 12:44:07;;;;;;;9.73;7.32;;;9.90;77.70;;;;;;4827231;29;20087;-81
2022/03/01 12:46:34;;;;;;;10.48;8.10;;;9.90;77.70;;;;;;4812515;29;20077;-81
2022/03/01 12:49:06;;;;;;;9.48;7.38;;;10.00;77.70;;;;;;4812500;29;20053;-80
2022/03/01 12:51:33;;;;;;;9.60;7.65;;;10.00;77.70;;;;;;4812674;29;20048;-82
2022/03/01 12:54:03;;;;;;;11.40;7.93;;;10.10;77.70;;;;;;4826957;29;20079;-82
2022/03/01 12:56:34;;;;;;;11.48;7.93;;;10.10;77.80;;;;;;4827983;29;20037;-81
2022/03/01 12:59:14;;;;;;;9.70;7.50;;;10.20;77.80;;;;;;4812001;29;20053;-81